createdAt,value
2023-06-01T00:01:39.609Z,101459.72
2023-06-01T00:04:06.540Z,101470.53
2023-06-01T00:06:33.116Z,101466.59
2023-06-01T00:08:59.795Z,101465.00
2023-06-01T00:11:26.765Z,101472.84
2023-06-01T00:13:53.492Z,101465.63
2023-06-01T00:16:20.067Z,101462.00
2023-06-01T00:18:46.740Z,101458.59
2023-06-01T00:21:13.181Z,101461.72
2023-06-01T00:23:42.502Z,101449.38
2023-06-01T00:26:09.074Z,101456.59
2023-06-01T00:28:35.880Z,101456.78
2023-06-01T00:31:02.489Z,101453.97
2023-06-01T00:33:29.177Z,101457.88
2023-06-01T00:35:55.629Z,101453.09
2023-06-01T00:38:22.080Z,101456.09
2023-06-01T00:40:51.180Z,101448.19
2023-06-01T00:43:20.911Z,101456.19
2023-06-01T00:45:47.422Z,101442.75
2023-06-01T00:48:16.034Z,101449.97
2023-06-01T00:50:45.398Z,101446.84
2023-06-01T00:53:17.437Z,101443.63
2023-06-01T00:55:44.464Z,101440.31
2023-06-01T00:58:10.973Z,101440.13
2023-06-01T01:00:38.561Z,101438.69
2023-06-01T01:03:11.535Z,101441.56
2023-06-01T01:05:38.953Z,101441.19
2023-06-01T01:08:28.486Z,101437.44
2023-06-01T01:11:07.745Z,101439.50
2023-06-01T01:13:48.933Z,101435.53
2023-06-01T01:16:31.095Z,101448.94
2023-06-01T01:19:33.193Z,101447.66
2023-06-01T01:22:21.329Z,101448.94
2023-06-01T01:25:16.370Z,101450.53
2023-06-01T01:28:05.944Z,101451.91
2023-06-01T01:30:32.787Z,101458.75
2023-06-01T01:33:00.402Z,101462.38
2023-06-01T01:35:27.806Z,101464.75
2023-06-01T01:37:55.470Z,101474.13
2023-06-01T01:40:22.640Z,101461.13
2023-06-01T01:42:50.027Z,101461.38
2023-06-01T01:45:17.311Z,101460.81
2023-06-01T01:47:59.133Z,101467.09
2023-06-01T01:50:29.123Z,101464.41
2023-06-01T01:52:56.004Z,101471.22
2023-06-01T01:55:24.942Z,101469.84
2023-06-01T01:57:53.021Z,101468.50
2023-06-01T02:00:20.449Z,101475.63
2023-06-01T02:02:47.498Z,101474.75
2023-06-01T02:05:14.084Z,101474.84
2023-06-01T02:07:40.864Z,101478.00
2023-06-01T02:10:08.023Z,101481.31
2023-06-01T02:12:34.515Z,101477.03
2023-06-01T02:15:01.050Z,101487.53
2023-06-01T02:17:28.199Z,101485.22
2023-06-01T02:19:54.740Z,101482.19
2023-06-01T02:22:21.326Z,101491.13
2023-06-01T02:24:48.408Z,101488.84
2023-06-01T02:27:14.869Z,101488.66
2023-06-01T02:29:41.637Z,101483.88
2023-06-01T02:32:08.564Z,101481.06
2023-06-01T02:34:37.357Z,101484.06
2023-06-01T02:37:03.882Z,101489.81
2023-06-01T02:39:30.393Z,101486.94
2023-06-01T02:41:56.823Z,101483.47
2023-06-01T02:44:23.275Z,101483.84
2023-06-01T02:46:49.720Z,101483.22
2023-06-01T02:49:16.177Z,101484.31
2023-06-01T02:51:42.610Z,101479.00
2023-06-01T02:54:09.059Z,101479.44
2023-06-01T02:56:35.486Z,101478.53
2023-06-01T02:59:02.104Z,101477.53
2023-06-01T03:01:28.917Z,101479.13
2023-06-01T03:03:55.853Z,101484.34
2023-06-01T03:06:24.835Z,101472.66
2023-06-01T03:08:51.296Z,101479.84
2023-06-01T03:11:17.844Z,101480.47
2023-06-01T03:13:44.483Z,101481.34
2023-06-01T03:16:11.220Z,101484.28
2023-06-01T03:18:39.036Z,101484.25
2023-06-01T03:21:06.049Z,101476.94
2023-06-01T03:23:32.668Z,101486.44
2023-06-01T03:25:59.132Z,101486.94
2023-06-01T03:28:25.927Z,101493.53
2023-06-01T03:30:52.523Z,101489.00
2023-06-01T03:33:19.194Z,101490.63
2023-06-01T03:35:45.693Z,101491.88
2023-06-01T03:38:12.251Z,101494.97
2023-06-01T03:40:38.772Z,101489.19
2023-06-01T03:43:05.230Z,101483.31
2023-06-01T03:45:31.741Z,101482.19
2023-06-01T03:47:58.243Z,101491.75
2023-06-01T03:50:24.695Z,101487.00
2023-06-01T03:52:51.205Z,101483.53
2023-06-01T03:55:17.696Z,101480.94
2023-06-01T03:57:44.127Z,101488.72
2023-06-01T04:00:20.529Z,101493.56
2023-06-01T04:02:55.624Z,101491.13
2023-06-01T04:05:23.001Z,101494.09
2023-06-01T04:07:51.437Z,101494.19
2023-06-01T04:10:18.223Z,101494.69
2023-06-01T04:12:45.818Z,101492.19
2023-06-01T04:15:14.382Z,101497.94
2023-06-01T04:17:41.941Z,101497.31
2023-06-01T04:20:11.625Z,101500.31
2023-06-01T04:22:38.950Z,101500.06
2023-06-01T04:25:08.174Z,101498.72
2023-06-01T04:27:37.725Z,101503.97
2023-06-01T04:30:08.726Z,101503.56
2023-06-01T04:32:38.899Z,101509.22
2023-06-01T04:35:06.510Z,101501.78
2023-06-01T04:37:38.926Z,101507.31
2023-06-01T04:40:10.372Z,101510.72
2023-06-01T04:42:42.627Z,101509.47
2023-06-01T04:45:12.847Z,101517.44
2023-06-01T04:47:40.577Z,101512.91
2023-06-01T04:50:11.188Z,101521.22
2023-06-01T04:52:38.469Z,101511.88
2023-06-01T04:55:05.862Z,101509.28
2023-06-01T04:57:33.420Z,101500.97
2023-06-01T04:59:59.867Z,101504.00
2023-06-01T05:02:27.220Z,101501.66
2023-06-01T05:04:53.721Z,101499.78
2023-06-01T05:07:22.240Z,101499.00
2023-06-01T05:09:49.446Z,101501.47
2023-06-01T05:12:16.007Z,101502.13
2023-06-01T05:14:42.547Z,101498.38
2023-06-01T05:17:09.051Z,101499.53
2023-06-01T05:19:35.671Z,101501.53
2023-06-01T05:22:02.340Z,101501.72
2023-06-01T05:24:28.951Z,101507.03
2023-06-01T05:26:55.538Z,101501.72
2023-06-01T05:29:22.424Z,101504.66
2023-06-01T05:31:50.656Z,101494.81
2023-06-01T05:34:17.197Z,101498.56
2023-06-01T05:36:43.859Z,101493.06
2023-06-01T05:39:10.341Z,101486.03
2023-06-01T05:41:36.781Z,101493.38
2023-06-01T05:44:03.723Z,101497.75
2023-06-01T05:46:30.310Z,101495.75
2023-06-01T05:48:57.112Z,101497.13
2023-06-01T05:51:23.611Z,101505.19
2023-06-01T05:53:50.105Z,101501.28
2023-06-01T05:56:17.577Z,101505.56
2023-06-01T05:58:44.734Z,101508.75
2023-06-01T06:01:11.245Z,101505.19
2023-06-01T06:03:39.353Z,101506.56
2023-06-01T06:06:06.105Z,101496.50
2023-06-01T06:08:32.583Z,101505.63
2023-06-01T06:10:59.087Z,101500.16
2023-06-01T06:13:25.794Z,101497.41
2023-06-01T06:15:52.316Z,101500.28
2023-06-01T06:18:20.484Z,101501.91
2023-06-01T06:20:47.646Z,101505.25
2023-06-01T06:23:14.194Z,101499.59
2023-06-01T06:25:44.045Z,101506.31
2023-06-01T06:28:10.850Z,101503.16
2023-06-01T06:30:37.278Z,101493.59
2023-06-01T06:33:03.887Z,101496.84
2023-06-01T06:35:30.574Z,101494.25
2023-06-01T06:37:57.066Z,101489.44
2023-06-01T06:40:23.589Z,101489.81
2023-06-01T06:42:51.350Z,101494.78
2023-06-01T06:45:18.327Z,101495.59
2023-06-01T06:47:46.578Z,101505.06
2023-06-01T06:50:13.870Z,101503.25
2023-06-01T06:52:40.371Z,101504.69
2023-06-01T06:55:07.526Z,101513.22
2023-06-01T06:57:35.175Z,101513.28
2023-06-01T07:00:06.221Z,101510.91
2023-06-01T07:02:33.057Z,101515.09
2023-06-01T07:04:59.584Z,101515.56
2023-06-01T07:07:26.208Z,101516.81
2023-06-01T07:09:54.051Z,101512.31
2023-06-01T07:12:20.534Z,101515.31
2023-06-01T07:14:47.025Z,101507.56
2023-06-01T07:17:13.546Z,101512.28
2023-06-01T07:19:40.046Z,101516.22
2023-06-01T07:22:06.923Z,101510.22
2023-06-01T07:24:33.446Z,101509.56
2023-06-01T07:27:00.762Z,101521.16
2023-06-01T07:29:27.719Z,101516.88
2023-06-01T07:31:54.281Z,101514.88
2023-06-01T07:34:21.080Z,101518.59
2023-06-01T07:36:48.174Z,101519.47
2023-06-01T07:39:16.038Z,101519.41
2023-06-01T07:41:43.552Z,101522.91
2023-06-01T07:44:10.025Z,101528.69
2023-06-01T07:46:36.642Z,101515.78
2023-06-01T07:49:04.195Z,101514.84
2023-06-01T07:51:32.214Z,101523.25
2023-06-01T07:54:00.895Z,101519.84
2023-06-01T07:56:27.760Z,101515.75
2023-06-01T07:58:54.769Z,101512.47
2023-06-01T08:01:21.417Z,101506.56
2023-06-01T08:03:48.043Z,101511.38
2023-06-01T08:06:16.213Z,101507.41
2023-06-01T08:08:42.774Z,101507.75
2023-06-01T08:11:10.093Z,101512.84
2023-06-01T08:13:37.318Z,101512.84
2023-06-01T08:16:04.879Z,101509.63
2023-06-01T08:18:31.703Z,101508.00
2023-06-01T08:20:58.220Z,101505.06
2023-06-01T08:23:24.706Z,101509.03
2023-06-01T08:25:51.535Z,101509.13
2023-06-01T08:28:18.052Z,101497.19
2023-06-01T08:30:44.524Z,101492.66
2023-06-01T08:33:11.163Z,101483.34
2023-06-01T08:38:05.105Z,101487.28
2023-06-01T08:40:34.521Z,101494.84
2023-06-01T08:43:21.451Z,101482.69
2023-06-01T08:45:49.184Z,101475.25
2023-06-01T08:48:20.515Z,101467.97
2023-06-01T08:50:50.341Z,101467.97
2023-06-01T08:53:22.467Z,101475.56
2023-06-01T08:55:55.591Z,101466.72
2023-06-01T08:58:22.119Z,101463.97
2023-06-01T09:00:49.983Z,101453.22
2023-06-01T09:03:16.845Z,101451.38
2023-06-01T09:05:43.769Z,101445.84
2023-06-01T09:08:10.817Z,101448.38
2023-06-01T09:10:37.277Z,101446.78
2023-06-01T09:13:04.383Z,101441.94
2023-06-01T09:15:30.860Z,101445.91
2023-06-01T09:18:13.761Z,101444.34
2023-06-01T09:20:41.938Z,101437.44
2023-06-01T09:23:08.394Z,101446.72
2023-06-01T09:25:35.392Z,101435.97
2023-06-01T09:28:03.005Z,101439.50
2023-06-01T09:30:43.464Z,101442.75
2023-06-01T09:33:17.103Z,101432.59
2023-06-01T09:35:50.525Z,101438.53
2023-06-01T09:38:24.999Z,101433.59
2023-06-01T09:40:59.740Z,101427.66
2023-06-01T09:43:26.504Z,101429.09
2023-06-01T09:46:15.248Z,101427.22
2023-06-01T09:48:44.875Z,101421.91
2023-06-01T09:51:30.022Z,101413.78
2023-06-01T09:53:56.469Z,101412.91
2023-06-01T09:56:22.913Z,101423.28
2023-06-01T09:58:57.498Z,101423.75
2023-06-01T10:01:24.200Z,101424.16
2023-06-01T10:03:54.612Z,101416.06
2023-06-01T10:06:21.427Z,101412.19
2023-06-01T10:08:48.706Z,101421.16
2023-06-01T10:11:15.148Z,101427.78
2023-06-01T10:13:41.798Z,101415.66
2023-06-01T10:16:08.356Z,101408.63
2023-06-01T10:18:34.934Z,101405.75
2023-06-01T10:21:02.466Z,101404.44
2023-06-01T10:23:31.835Z,101407.41
2023-06-01T10:26:01.593Z,101400.94
2023-06-01T10:28:30.351Z,101419.19
2023-06-01T10:31:34.418Z,101398.13
2023-06-01T10:34:01.053Z,101398.03
2023-06-01T10:36:53.458Z,101393.66
2023-06-01T10:39:23.986Z,101400.13
2023-06-01T10:41:50.577Z,101402.78
2023-06-01T10:44:41.796Z,101402.00
2023-06-01T10:47:13.952Z,101408.28
2023-06-01T10:49:46.333Z,101401.78
2023-06-01T10:52:34.128Z,101415.25
2023-06-01T10:55:14.234Z,101411.34
2023-06-01T10:57:41.707Z,101412.59
2023-06-01T11:00:12.127Z,101404.31
2023-06-01T11:02:55.088Z,101403.41
2023-06-01T11:05:49.839Z,101396.31
2023-06-01T11:08:30.497Z,101402.63
2023-06-01T11:10:59.137Z,101412.03
2023-06-01T11:13:32.711Z,101405.03
2023-06-01T11:16:25.923Z,101409.53
2023-06-01T11:18:59.918Z,101407.78
2023-06-01T11:21:28.999Z,101400.13
2023-06-01T11:23:57.136Z,101412.66
2023-06-01T11:26:26.301Z,101405.94
2023-06-01T11:28:53.778Z,101408.47
2023-06-01T11:31:22.703Z,101403.66
2023-06-01T11:33:58.015Z,101408.09
2023-06-01T11:36:25.763Z,101407.38
2023-06-01T11:38:56.945Z,101405.63
2023-06-01T11:41:24.374Z,101412.47
2023-06-01T11:43:58.022Z,101411.28
2023-06-01T11:46:25.139Z,101403.72
2023-06-01T11:49:02.778Z,101396.06
2023-06-01T11:51:36.430Z,101401.88
2023-06-01T11:54:03.664Z,101392.56
2023-06-01T11:56:31.609Z,101397.06
2023-06-01T11:59:02.027Z,101407.66
2023-06-01T12:01:28.991Z,101404.34
2023-06-01T12:03:59.058Z,101399.06
2023-06-01T12:06:28.737Z,101395.38
2023-06-01T12:08:58.365Z,101394.00
2023-06-01T12:11:28.651Z,101399.94
2023-06-01T12:13:59.138Z,101401.81
2023-06-01T12:16:28.731Z,101401.59
2023-06-01T12:18:55.908Z,101394.59
2023-06-01T12:21:22.565Z,101388.88
2023-06-01T12:23:54.862Z,101388.88
2023-06-01T12:26:21.356Z,101382.03
2023-06-01T12:28:49.288Z,101377.09
2023-06-01T12:31:16.705Z,101372.50
2023-06-01T12:33:46.862Z,101369.00
2023-06-01T12:36:33.181Z,101368.66
2023-06-01T12:39:00.714Z,101374.34
2023-06-01T12:41:27.811Z,101360.13
2023-06-01T12:43:54.968Z,101361.09
2023-06-01T12:46:26.061Z,101364.06
2023-06-01T12:48:54.834Z,101363.31
2023-06-01T12:51:22.407Z,101361.44
2023-06-01T12:53:48.985Z,101366.44
2023-06-01T12:56:16.268Z,101362.47
2023-06-01T12:58:42.798Z,101362.81
2023-06-01T13:01:09.303Z,101367.31
2023-06-01T13:03:35.870Z,101369.56
2023-06-01T13:06:02.436Z,101351.00
2023-06-01T13:08:29.132Z,101352.16
2023-06-01T13:10:55.690Z,101346.09
2023-06-01T13:13:22.394Z,101345.06
2023-06-01T13:15:49.364Z,101344.13
2023-06-01T13:18:16.621Z,101340.97
2023-06-01T13:20:43.435Z,101347.97
2023-06-01T13:23:10.810Z,101354.19
2023-06-01T13:25:38.248Z,101350.81
2023-06-01T13:28:04.749Z,101346.75
2023-06-01T13:30:31.637Z,101346.56
2023-06-01T13:32:58.405Z,101340.28
2023-06-01T13:35:25.214Z,101353.66
2023-06-01T13:37:51.680Z,101354.97
2023-06-01T13:40:19.433Z,101349.38
2023-06-01T13:42:46.387Z,101341.84
2023-06-01T13:45:13.037Z,101337.47
2023-06-01T13:47:39.686Z,101338.13
2023-06-01T13:50:07.093Z,101339.28
2023-06-01T13:52:33.544Z,101332.00
2023-06-01T13:55:00.028Z,101324.38
2023-06-01T13:57:26.504Z,101328.28
2023-06-01T13:59:53.002Z,101327.03
2023-06-01T14:02:19.515Z,101328.13
2023-06-01T14:04:47.433Z,101333.41
2023-06-01T14:07:17.613Z,101331.81
2023-06-01T14:09:44.085Z,101332.97
2023-06-01T14:12:10.651Z,101320.47
2023-06-01T14:14:37.119Z,101323.81
2023-06-01T14:17:03.591Z,101308.13
2023-06-01T14:19:30.138Z,101306.28
2023-06-01T14:21:57.303Z,101304.59
2023-06-01T14:24:24.116Z,101309.41
2023-06-01T14:26:50.716Z,101299.84
2023-06-01T14:29:17.198Z,101296.97
2023-06-01T14:31:43.754Z,101298.59
2023-06-01T14:34:10.235Z,101292.34
2023-06-01T14:36:46.852Z,101283.13
2023-06-01T14:39:14.462Z,101284.84
2023-06-01T14:41:43.352Z,101276.59
2023-06-01T14:44:11.414Z,101279.31
2023-06-01T14:46:38.226Z,101276.75
2023-06-01T14:49:05.319Z,101274.25
2023-06-01T14:51:34.082Z,101270.31
2023-06-01T14:54:00.562Z,101269.31
2023-06-01T14:56:27.170Z,101272.50
2023-06-01T14:58:54.460Z,101267.38
2023-06-01T15:01:20.969Z,101260.03
2023-06-01T15:03:47.645Z,101265.78
2023-06-01T15:06:14.287Z,101261.56
2023-06-01T15:08:40.788Z,101242.03
2023-06-01T15:11:07.260Z,101244.47
2023-06-01T15:13:33.723Z,101249.28
2023-06-01T15:16:00.224Z,101241.47
2023-06-01T15:18:26.762Z,101242.16
2023-06-01T15:20:53.216Z,101242.22
2023-06-01T15:23:20.005Z,101239.72
2023-06-01T15:25:46.515Z,101234.19
2023-06-01T15:28:13.058Z,101236.00
2023-06-01T15:30:39.562Z,101231.38
2023-06-01T15:33:09.172Z,101231.59
2023-06-01T15:35:36.132Z,101230.72
2023-06-01T15:38:02.859Z,101223.53
2023-06-01T15:40:29.546Z,101228.53
2023-06-01T15:42:56.060Z,101221.28
2023-06-01T15:45:22.521Z,101216.94
2023-06-01T15:47:49.030Z,101225.22
2023-06-01T15:50:15.850Z,101218.31
2023-06-01T15:52:42.409Z,101213.34
2023-06-01T15:55:09.073Z,101206.00
2023-06-01T15:57:35.666Z,101209.78
2023-06-01T16:00:03.718Z,101212.38
2023-06-01T16:02:30.461Z,101210.97
2023-06-01T16:04:57.099Z,101208.91
2023-06-01T16:07:23.685Z,101210.22
2023-06-01T16:09:55.064Z,101196.88
2023-06-01T16:12:23.186Z,101194.34
2023-06-01T16:14:49.684Z,101178.44
2023-06-01T16:17:16.192Z,101169.16
2023-06-01T16:19:42.891Z,101179.63
2023-06-01T16:22:09.697Z,101182.13
2023-06-01T16:24:38.184Z,101173.00
2023-06-01T16:27:05.554Z,101161.47
2023-06-01T16:29:32.352Z,101175.53
2023-06-01T16:31:58.877Z,101170.88
2023-06-01T16:34:25.524Z,101168.28
2023-06-01T16:36:51.967Z,101164.88
2023-06-01T16:39:18.549Z,101159.25
2023-06-01T16:41:45.136Z,101169.59
2023-06-01T16:44:11.602Z,101169.44
2023-06-01T16:46:38.159Z,101166.19
2023-06-01T16:49:06.132Z,101181.53
2023-06-01T16:51:36.960Z,101175.69
2023-06-01T16:54:05.351Z,101169.94
2023-06-01T16:56:32.219Z,101170.25
2023-06-01T16:58:58.701Z,101167.84
2023-06-01T17:01:25.218Z,101172.75
2023-06-01T17:03:51.798Z,101178.50
2023-06-01T17:06:18.698Z,101169.41
2023-06-01T17:08:45.229Z,101184.50
2023-06-01T17:11:11.708Z,101175.34
2023-06-01T17:13:38.175Z,101177.41
2023-06-01T17:16:08.240Z,101178.78
2023-06-01T17:18:35.457Z,101187.31
2023-06-01T17:21:02.044Z,101182.00
2023-06-01T17:23:29.745Z,101184.84
2023-06-01T17:25:56.261Z,101177.84
2023-06-01T17:28:22.760Z,101180.47
2023-06-01T17:30:49.253Z,101183.81
2023-06-01T17:33:15.986Z,101187.28
2023-06-01T17:35:42.481Z,101187.47
2023-06-01T17:38:08.927Z,101183.56
2023-06-01T17:40:35.361Z,101189.66
2023-06-01T17:43:01.788Z,101189.22
2023-06-01T17:45:28.297Z,101179.09
2023-06-01T17:47:54.923Z,101189.28
2023-06-01T17:50:21.475Z,101186.41
2023-06-01T17:52:47.952Z,101189.19
2023-06-01T17:55:14.449Z,101183.47
2023-06-01T17:57:40.936Z,101189.66
2023-06-01T18:00:08.463Z,101195.25
2023-06-01T18:02:34.986Z,101203.91
2023-06-01T18:05:01.441Z,101198.69
2023-06-01T18:07:29.346Z,101197.44
2023-06-01T18:09:55.928Z,101201.50
2023-06-01T18:12:22.369Z,101199.59
2023-06-01T18:14:48.837Z,101197.22
2023-06-01T18:17:15.410Z,101206.63
2023-06-01T18:19:42.315Z,101208.75
2023-06-01T18:22:09.890Z,101200.63
2023-06-01T18:24:36.516Z,101206.75
2023-06-01T18:27:03.014Z,101203.16
2023-06-01T18:29:29.455Z,101200.69
2023-06-01T18:31:56.296Z,101206.16
2023-06-01T18:34:22.731Z,101203.63
2023-06-01T18:36:49.189Z,101196.34
2023-06-01T18:39:15.951Z,101196.00
2023-06-01T18:41:42.439Z,101195.25
2023-06-01T18:44:09.678Z,101197.44
2023-06-01T18:46:38.477Z,101199.31
2023-06-01T18:49:05.657Z,101203.31
2023-06-01T18:51:32.718Z,101199.34
2023-06-01T18:54:01.148Z,101199.44
2023-06-01T18:56:28.077Z,101195.88
2023-06-01T18:58:54.983Z,101203.09
2023-06-01T19:01:21.751Z,101195.06
2023-06-01T19:03:48.959Z,101203.47
2023-06-01T19:06:15.515Z,101202.78
2023-06-01T19:08:42.722Z,101205.19
2023-06-01T19:11:09.690Z,101199.19
2023-06-01T19:13:44.372Z,101198.84
2023-06-01T19:16:21.617Z,101198.78
2023-06-01T19:18:49.713Z,101202.03
2023-06-01T19:21:32.419Z,101194.97
2023-06-01T19:24:01.453Z,101207.34
2023-06-01T19:26:30.136Z,101197.50
2023-06-01T19:29:01.841Z,101200.34
2023-06-01T19:31:34.183Z,101200.81
2023-06-01T19:34:01.494Z,101201.38
2023-06-01T19:36:43.198Z,101204.13
2023-06-01T19:39:09.849Z,101204.84
2023-06-01T19:41:36.296Z,101214.41
2023-06-01T19:44:03.006Z,101209.13
2023-06-01T19:46:29.539Z,101209.81
2023-06-01T19:49:00.777Z,101213.03
2023-06-01T19:51:31.489Z,101218.91
2023-06-01T19:53:58.779Z,101217.91
2023-06-01T19:56:41.320Z,101213.00
2023-06-01T19:59:11.749Z,101220.72
2023-06-01T20:01:39.757Z,101224.94
2023-06-01T20:04:06.929Z,101224.00
2023-06-01T20:06:34.526Z,101220.78
2023-06-01T20:09:11.791Z,101226.50
2023-06-01T20:11:40.750Z,101233.69
2023-06-01T20:14:29.864Z,101226.28
2023-06-01T20:16:57.643Z,101227.91
2023-06-01T20:19:24.691Z,101233.69
2023-06-01T20:21:53.173Z,101228.28
2023-06-01T20:24:24.819Z,101234.19
2023-06-01T20:26:56.383Z,101239.88
2023-06-01T20:29:22.924Z,101243.16
2023-06-01T20:31:49.451Z,101246.56
2023-06-01T20:34:17.126Z,101250.47
2023-06-01T20:36:43.619Z,101243.59
2023-06-01T20:39:10.351Z,101247.50
2023-06-01T20:41:37.132Z,101245.56
2023-06-01T20:44:03.909Z,101248.56
2023-06-01T20:46:32.837Z,101247.41
2023-06-01T20:49:01.826Z,101245.44
2023-06-01T20:51:28.442Z,101245.34
2023-06-01T20:54:01.774Z,101243.47
2023-06-01T20:56:35.424Z,101244.84
2023-06-01T20:59:11.889Z,101250.19
2023-06-01T21:01:43.192Z,101245.84
2023-06-01T21:04:12.238Z,101247.47
2023-06-01T21:06:39.101Z,101245.28
2023-06-01T21:09:09.100Z,101242.34
2023-06-01T21:11:36.305Z,101237.81
2023-06-01T21:14:02.925Z,101235.56
2023-06-01T21:16:29.552Z,101240.25
2023-06-01T21:18:56.301Z,101244.16
2023-06-01T21:21:22.868Z,101237.09
2023-06-01T21:23:49.492Z,101240.28
2023-06-01T21:26:16.707Z,101242.78
2023-06-01T21:28:43.583Z,101246.38
2023-06-01T21:31:10.393Z,101244.25
2023-06-01T21:33:37.903Z,101249.72
2023-06-01T21:36:04.656Z,101251.16
2023-06-01T21:38:31.207Z,101245.97
2023-06-01T21:40:57.897Z,101241.56
2023-06-01T21:43:24.639Z,101242.84
2023-06-01T21:45:51.292Z,101241.91
2023-06-01T21:48:18.965Z,101247.59
2023-06-01T21:50:47.761Z,101262.41
2023-06-01T21:53:16.146Z,101260.47
2023-06-01T21:55:43.500Z,101263.75
2023-06-01T21:58:10.288Z,101272.91
2023-06-01T22:00:36.889Z,101266.34
2023-06-01T22:03:03.931Z,101260.69
2023-06-01T22:05:32.568Z,101261.56
2023-06-01T22:07:59.093Z,101260.69
2023-06-01T22:10:25.631Z,101262.72
2023-06-01T22:12:52.163Z,101262.59
2023-06-01T22:15:18.813Z,101260.00
2023-06-01T22:17:45.475Z,101265.56
2023-06-01T22:20:12.274Z,101266.25
2023-06-01T22:22:39.284Z,101273.56
2023-06-01T22:25:06.590Z,101276.97
2023-06-01T22:27:33.168Z,101271.88
2023-06-01T22:29:59.923Z,101275.34
2023-06-01T22:32:26.556Z,101275.16
2023-06-01T22:34:54.259Z,101278.03
2023-06-01T22:37:22.726Z,101276.38
2023-06-01T22:39:50.390Z,101275.16
2023-06-01T22:42:17.579Z,101275.41
2023-06-01T22:44:44.860Z,101274.13
2023-06-01T22:47:11.711Z,101266.75
2023-06-01T22:49:38.368Z,101268.78
2023-06-01T22:52:05.641Z,101270.97
2023-06-01T22:54:32.261Z,101273.56
2023-06-01T22:56:59.190Z,101268.69
2023-06-01T22:59:25.894Z,101265.53
2023-06-01T23:01:52.495Z,101273.16
2023-06-01T23:04:24.323Z,101277.22
2023-06-01T23:06:54.972Z,101274.72
2023-06-01T23:09:22.145Z,101272.75
2023-06-01T23:11:52.575Z,101266.75
2023-06-01T23:14:26.691Z,101283.50
2023-06-01T23:16:53.695Z,101277.00
2023-06-01T23:19:21.406Z,101283.19
2023-06-01T23:21:49.492Z,101274.97
2023-06-01T23:24:18.351Z,101275.88
2023-06-01T23:26:44.995Z,101279.59
2023-06-01T23:29:11.455Z,101281.53
2023-06-01T23:31:38.030Z,101281.06
2023-06-01T23:34:07.721Z,101277.22
2023-06-01T23:36:37.669Z,101273.38
2023-06-01T23:39:06.921Z,101267.19
2023-06-01T23:41:34.596Z,101272.25
2023-06-01T23:44:01.386Z,101279.25
2023-06-01T23:46:29.499Z,101269.44
2023-06-01T23:48:56.964Z,101277.00
2023-06-01T23:51:23.481Z,101265.22
2023-06-01T23:53:49.945Z,101273.53
2023-06-01T23:56:16.793Z,101276.84
2023-06-01T23:58:43.322Z,101279.75
